Dicle Deniz — TCWP2 — position and weather

sailwx.info

Track history (hours):
 
Tides and Currents Weather Stations Pressure Air Temp Water Temp Dewpoint Dewpoint Depression Visibility Wind Speed Wind Dir Waves Ship Positions

Dicle Deniz

Last reported at 2017-Nov-11 14:11 UTC. Time now 2017-Nov-18 08:34 UTC.
Position N 30°59' W 012°05'.

Length 88 m; draft 4.4 m.

Type: Tanker. MMSI: 271040029.

Date/timePositionNaut miles runAvg speedWind from/ knotsBaromVisibWave heightAir tempDewpointWater temp
2017-Nov-11 14:11N 30°59' W 012°05'3 8.9
2017-Nov-11 13:53N 30°57' W 012°07'26 8.0
2017-Nov-11 10:39N 30°39' W 012°29'15 7.6
2017-Nov-11 08:42N 30°28' W 012°41'25 6.8
2017-Nov-11 05:02N 30°11' W 013°02'0 6.6
2017-Nov-11 05:00N 30°11' W 013°02'4 6.4
2017-Nov-11 04:26N 30°08' W 013°05'3 6.4
2017-Nov-11 03:58N 30°06' W 013°07'48 6.5
2017-Nov-10 20:33N 29°31' W 013°46'3 6.5
2017-Nov-10 20:07N 29°29' W 013°48'19 5.6
2017-Nov-10 16:49N 29°14' W 014°00'2 6.1
2017-Nov-10 16:28N 29°13' W 014°02'5 6.2
2017-Nov-10 15:41N 29°08' W 014°04'3 6.8
2017-Nov-10 15:18N 29°06' W 014°06'3 6.8
2017-Nov-10 14:51N 29°03' W 014°07'7 6.6
2017-Nov-10 13:50N 28°57' W 014°10'2 6.0
2017-Nov-10 13:30N 28°55' W 014°12'3 6.6
2017-Nov-10 13:00N 28°53' W 014°14'5 6.7
2017-Nov-10 12:12N 28°48' W 014°17'2 6.6
2017-Nov-10 11:52N 28°46' W 014°18'3 6.8
2017-Nov-10 11:25N 28°44' W 014°21'3 6.7
2017-Nov-10 11:00N 28°42' W 014°22'4 6.7
2017-Nov-10 10:27N 28°39' W 014°25'3 6.7
2017-Nov-10 10:00N 28°36' W 014°27'3 6.5
2017-Nov-10 09:30N 28°34' W 014°30'3 6.9
2017-Nov-10 09:00N 28°31' W 014°32'3 6.9
2017-Nov-10 08:30N 28°29' W 014°35'4 7.2
2017-Nov-10 08:00N 28°27' W 014°38'4 7.4
2017-Nov-10 07:30N 28°24' W 014°42'4 7.4
2017-Nov-10 07:01N 28°22' W 014°45'4 7.6
2017-Nov-10 06:31N 28°20' W 014°49'4 7.2
2017-Nov-10 06:01N 28°17' W 014°51'4 7.2
2017-Nov-10 05:31N 28°14' W 014°52'4 7.7
2017-Nov-10 05:01N 28°10' W 014°54'4 7.9
2017-Nov-10 04:31N 28°06' W 014°55'4 7.9
2017-Nov-10 04:01N 28°03' W 014°57'4 8.3
2017-Nov-10 03:31N 27°59' W 014°58'4 8.1
2017-Nov-10 03:01N 27°55' W 015°00'4 8.4
2017-Nov-10 02:31N 27°51' W 015°02'4 8.3
2017-Nov-10 01:59N 27°47' W 015°03'  
Track history (hours):
 
Tides and Currents Weather Stations Pressure Air Temp Water Temp Dewpoint Dewpoint Depression Visibility Wind Speed Wind Dir Waves Ship Positions

Dicle Deniz

Last reported at 2017-Nov-11 14:11 UTC. Time now 2017-Nov-18 08:34 UTC.
Position N 30°59' W 012°05'.

Length 88 m; draft 4.4 m.

Type: Tanker. MMSI: 271040029.

Date/timePositionNaut miles runAvg speedWind from/ knotsBaromVisibWave heightAir tempDewpointWater temp
2017-Nov-11 14:11N 30°59' W 012°05'3 8.9
2017-Nov-11 13:53N 30°57' W 012°07'26 8.0
2017-Nov-11 10:39N 30°39' W 012°29'15 7.6
2017-Nov-11 08:42N 30°28' W 012°41'25 6.8
2017-Nov-11 05:02N 30°11' W 013°02'0 6.6
2017-Nov-11 05:00N 30°11' W 013°02'4 6.4
2017-Nov-11 04:26N 30°08' W 013°05'3 6.4
2017-Nov-11 03:58N 30°06' W 013°07'48 6.5
2017-Nov-10 20:33N 29°31' W 013°46'3 6.5
2017-Nov-10 20:07N 29°29' W 013°48'19 5.6
2017-Nov-10 16:49N 29°14' W 014°00'2 6.1
2017-Nov-10 16:28N 29°13' W 014°02'5 6.2
2017-Nov-10 15:41N 29°08' W 014°04'3 6.8
2017-Nov-10 15:18N 29°06' W 014°06'3 6.8
2017-Nov-10 14:51N 29°03' W 014°07'7 6.6
2017-Nov-10 13:50N 28°57' W 014°10'2 6.0
2017-Nov-10 13:30N 28°55' W 014°12'3 6.6
2017-Nov-10 13:00N 28°53' W 014°14'5 6.7
2017-Nov-10 12:12N 28°48' W 014°17'2 6.6
2017-Nov-10 11:52N 28°46' W 014°18'3 6.8
2017-Nov-10 11:25N 28°44' W 014°21'3 6.7
2017-Nov-10 11:00N 28°42' W 014°22'4 6.7
2017-Nov-10 10:27N 28°39' W 014°25'3 6.7
2017-Nov-10 10:00N 28°36' W 014°27'3 6.5
2017-Nov-10 09:30N 28°34' W 014°30'3 6.9
2017-Nov-10 09:00N 28°31' W 014°32'3 6.9
2017-Nov-10 08:30N 28°29' W 014°35'4 7.2
2017-Nov-10 08:00N 28°27' W 014°38'4 7.4
2017-Nov-10 07:30N 28°24' W 014°42'4 7.4
2017-Nov-10 07:01N 28°22' W 014°45'4 7.6
2017-Nov-10 06:31N 28°20' W 014°49'4 7.2
2017-Nov-10 06:01N 28°17' W 014°51'4 7.2
2017-Nov-10 05:31N 28°14' W 014°52'4 7.7
2017-Nov-10 05:01N 28°10' W 014°54'4 7.9
2017-Nov-10 04:31N 28°06' W 014°55'4 7.9
2017-Nov-10 04:01N 28°03' W 014°57'4 8.3
2017-Nov-10 03:31N 27°59' W 014°58'4 8.1
2017-Nov-10 03:01N 27°55' W 015°00'4 8.4
2017-Nov-10 02:31N 27°51' W 015°02'4 8.3
2017-Nov-10 01:59N 27°47' W 015°03'  

Dump ship's entire track history